sensor_id;sensor_type;location;lat;lon;timestamp;P1;durP1;ratioP1;P2;durP2;ratioP2
21860;SDS011;11095;48.066;8.540;2023-05-29T00:00:21;12.23;;;7.07;;
21860;SDS011;11095;48.066;8.540;2023-05-29T00:02:47;11.30;;;6.82;;
21860;SDS011;11095;48.066;8.540;2023-05-29T00:05:14;10.57;;;6.45;;
21860;SDS011;11095;48.066;8.540;2023-05-29T00:07:40;9.63;;;6.82;;
21860;SDS011;11095;48.066;8.540;2023-05-29T00:10:07;11.20;;;6.22;;
21860;SDS011;11095;48.066;8.540;2023-05-29T00:12:34;11.48;;;6.40;;
21860;SDS011;11095;48.066;8.540;2023-05-29T00:15:00;10.15;;;6.10;;
21860;SDS011;11095;48.066;8.540;2023-05-29T00:17:26;10.82;;;6.50;;
21860;SDS011;11095;48.066;8.540;2023-05-29T00:19:51;8.90;;;5.93;;
21860;SDS011;11095;48.066;8.540;2023-05-29T00:22:17;9.40;;;5.93;;
21860;SDS011;11095;48.066;8.540;2023-05-29T00:24:43;9.95;;;6.38;;
21860;SDS011;11095;48.066;8.540;2023-05-29T00:27:09;10.38;;;6.25;;
21860;SDS011;11095;48.066;8.540;2023-05-29T00:29:35;8.43;;;6.10;;
21860;SDS011;11095;48.066;8.540;2023-05-29T00:32:01;10.40;;;6.22;;
21860;SDS011;11095;48.066;8.540;2023-05-29T00:34:27;9.50;;;5.90;;
21860;SDS011;11095;48.066;8.540;2023-05-29T00:36:53;8.95;;;5.95;;
21860;SDS011;11095;48.066;8.540;2023-05-29T00:39:20;11.07;;;5.55;;
21860;SDS011;11095;48.066;8.540;2023-05-29T00:41:46;9.15;;;5.90;;
21860;SDS011;11095;48.066;8.540;2023-05-29T00:44:17;11.47;;;6.33;;
21860;SDS011;11095;48.066;8.540;2023-05-29T00:46:43;10.32;;;6.57;;
21860;SDS011;11095;48.066;8.540;2023-05-29T00:49:09;9.50;;;5.63;;
21860;SDS011;11095;48.066;8.540;2023-05-29T00:51:36;10.20;;;6.25;;
21860;SDS011;11095;48.066;8.540;2023-05-29T00:54:02;10.15;;;6.43;;
21860;SDS011;11095;48.066;8.540;2023-05-29T00:56:33;8.82;;;6.07;;
21860;SDS011;11095;48.066;8.540;2023-05-29T00:59:07;8.75;;;6.30;;
21860;SDS011;11095;48.066;8.540;2023-05-29T01:01:33;8.45;;;6.10;;
21860;SDS011;11095;48.066;8.540;2023-05-29T01:04:00;9.68;;;6.25;;
21860;SDS011;11095;48.066;8.540;2023-05-29T01:06:31;7.78;;;5.60;;
21860;SDS011;11095;48.066;8.540;2023-05-29T01:08:57;7.80;;;5.85;;
21860;SDS011;11095;48.066;8.540;2023-05-29T01:13:49;8.90;;;5.90;;
21860;SDS011;11095;48.066;8.540;2023-05-29T01:19:00;8.07;;;5.85;;
21860;SDS011;11095;48.066;8.540;2023-05-29T01:22:13;9.80;;;6.47;;
21860;SDS011;11095;48.066;8.540;2023-05-29T01:25:17;8.90;;;6.20;;
21860;SDS011;11095;48.066;8.540;2023-05-29T01:27:44;10.93;;;6.30;;
21860;SDS011;11095;48.066;8.540;2023-05-29T01:30:12;10.30;;;6.68;;
21860;SDS011;11095;48.066;8.540;2023-05-29T01:32:40;11.68;;;6.85;;
21860;SDS011;11095;48.066;8.540;2023-05-29T01:35:07;11.00;;;6.75;;
21860;SDS011;11095;48.066;8.540;2023-05-29T01:37:33;10.18;;;6.60;;
21860;SDS011;11095;48.066;8.540;2023-05-29T01:39:59;10.25;;;6.70;;
21860;SDS011;11095;48.066;8.540;2023-05-29T01:42:25;9.93;;;6.53;;
21860;SDS011;11095;48.066;8.540;2023-05-29T01:44:52;9.52;;;6.95;;
21860;SDS011;11095;48.066;8.540;2023-05-29T01:47:19;9.70;;;6.63;;
21860;SDS011;11095;48.066;8.540;2023-05-29T01:49:45;10.02;;;6.65;;
21860;SDS011;11095;48.066;8.540;2023-05-29T01:52:14;10.65;;;7.00;;
21860;SDS011;11095;48.066;8.540;2023-05-29T01:54:40;12.32;;;7.60;;
21860;SDS011;11095;48.066;8.540;2023-05-29T01:57:06;10.90;;;7.18;;
21860;SDS011;11095;48.066;8.540;2023-05-29T01:59:32;9.93;;;6.90;;
21860;SDS011;11095;48.066;8.540;2023-05-29T02:02:06;9.70;;;6.95;;
21860;SDS011;11095;48.066;8.540;2023-05-29T02:04:32;10.02;;;7.03;;
21860;SDS011;11095;48.066;8.540;2023-05-29T02:06:58;10.07;;;6.30;;
21860;SDS011;11095;48.066;8.540;2023-05-29T02:09:24;10.57;;;6.80;;
21860;SDS011;11095;48.066;8.540;2023-05-29T02:11:50;10.82;;;6.78;;
21860;SDS011;11095;48.066;8.540;2023-05-29T02:14:15;10.65;;;6.80;;
21860;SDS011;11095;48.066;8.540;2023-05-29T02:16:41;10.93;;;6.95;;
21860;SDS011;11095;48.066;8.540;2023-05-29T02:19:09;10.02;;;6.47;;
21860;SDS011;11095;48.066;8.540;2023-05-29T02:21:37;10.40;;;6.80;;
21860;SDS011;11095;48.066;8.540;2023-05-29T02:24:04;10.43;;;6.88;;
21860;SDS011;11095;48.066;8.540;2023-05-29T02:26:30;10.93;;;6.95;;
21860;SDS011;11095;48.066;8.540;2023-05-29T02:28:56;10.18;;;5.80;;
21860;SDS011;11095;48.066;8.540;2023-05-29T02:31:22;9.60;;;5.90;;
21860;SDS011;11095;48.066;8.540;2023-05-29T02:33:47;11.30;;;6.85;;
21860;SDS011;11095;48.066;8.540;2023-05-29T02:36:13;9.05;;;6.30;;
21860;SDS011;11095;48.066;8.540;2023-05-29T02:38:39;9.13;;;6.55;;
21860;SDS011;11095;48.066;8.540;2023-05-29T02:41:05;11.63;;;7.22;;
21860;SDS011;11095;48.066;8.540;2023-05-29T02:43:31;12.00;;;7.10;;
21860;SDS011;11095;48.066;8.540;2023-05-29T02:45:56;10.40;;;6.47;;
21860;SDS011;11095;48.066;8.540;2023-05-29T02:48:22;9.38;;;6.57;;
21860;SDS011;11095;48.066;8.540;2023-05-29T02:50:47;12.65;;;7.10;;
21860;SDS011;11095;48.066;8.540;2023-05-29T02:53:13;9.98;;;6.35;;
21860;SDS011;11095;48.066;8.540;2023-05-29T02:55:39;11.98;;;7.20;;
21860;SDS011;11095;48.066;8.540;2023-05-29T02:58:04;10.50;;;7.22;;
21860;SDS011;11095;48.066;8.540;2023-05-29T03:00:30;12.57;;;6.80;;
21860;SDS011;11095;48.066;8.540;2023-05-29T03:02:56;11.10;;;7.25;;
21860;SDS011;11095;48.066;8.540;2023-05-29T03:05:21;13.05;;;6.97;;
21860;SDS011;11095;48.066;8.540;2023-05-29T03:07:47;8.25;;;6.55;;
21860;SDS011;11095;48.066;8.540;2023-05-29T03:10:13;10.65;;;6.45;;
21860;SDS011;11095;48.066;8.540;2023-05-29T03:12:42;10.27;;;6.43;;
21860;SDS011;11095;48.066;8.540;2023-05-29T03:15:09;14.32;;;7.15;;
21860;SDS011;11095;48.066;8.540;2023-05-29T03:17:35;10.00;;;7.00;;
21860;SDS011;11095;48.066;8.540;2023-05-29T03:20:03;11.02;;;6.72;;
21860;SDS011;11095;48.066;8.540;2023-05-29T03:22:31;11.45;;;6.93;;
21860;SDS011;11095;48.066;8.540;2023-05-29T03:24:57;9.73;;;6.45;;
21860;SDS011;11095;48.066;8.540;2023-05-29T03:27:23;11.73;;;7.50;;
21860;SDS011;11095;48.066;8.540;2023-05-29T03:29:48;11.75;;;7.07;;
21860;SDS011;11095;48.066;8.540;2023-05-29T03:32:14;10.45;;;6.97;;
21860;SDS011;11095;48.066;8.540;2023-05-29T03:34:39;10.25;;;7.20;;
21860;SDS011;11095;48.066;8.540;2023-05-29T03:37:05;11.88;;;7.53;;
21860;SDS011;11095;48.066;8.540;2023-05-29T03:39:31;10.23;;;7.10;;
21860;SDS011;11095;48.066;8.540;2023-05-29T03:41:56;9.95;;;6.75;;
21860;SDS011;11095;48.066;8.540;2023-05-29T03:44:22;9.75;;;6.30;;
21860;SDS011;11095;48.066;8.540;2023-05-29T03:46:48;10.32;;;6.65;;
21860;SDS011;11095;48.066;8.540;2023-05-29T03:49:15;9.25;;;6.88;;
21860;SDS011;11095;48.066;8.540;2023-05-29T03:51:40;9.95;;;6.07;;
21860;SDS011;11095;48.066;8.540;2023-05-29T03:54:06;9.25;;;6.40;;
21860;SDS011;11095;48.066;8.540;2023-05-29T03:56:32;9.35;;;6.68;;
21860;SDS011;11095;48.066;8.540;2023-05-29T03:58:57;9.50;;;6.70;;
21860;SDS011;11095;48.066;8.540;2023-05-29T04:01:23;11.35;;;7.03;;
21860;SDS011;11095;48.066;8.540;2023-05-29T04:03:49;9.50;;;6.28;;
21860;SDS011;11095;48.066;8.540;2023-05-29T04:06:15;8.90;;;5.80;;
21860;SDS011;11095;48.066;8.540;2023-05-29T04:08:41;8.55;;;6.18;;
21860;SDS011;11095;48.066;8.540;2023-05-29T04:11:06;8.00;;;5.90;;
21860;SDS011;11095;48.066;8.540;2023-05-29T04:13:32;8.82;;;6.50;;
21860;SDS011;11095;48.066;8.540;2023-05-29T04:15:58;7.88;;;6.47;;
21860;SDS011;11095;48.066;8.540;2023-05-29T04:18:24;10.25;;;6.30;;
21860;SDS011;11095;48.066;8.540;2023-05-29T04:20:50;7.95;;;5.80;;
21860;SDS011;11095;48.066;8.540;2023-05-29T04:23:16;9.25;;;5.88;;
21860;SDS011;11095;48.066;8.540;2023-05-29T04:25:42;7.38;;;5.30;;
21860;SDS011;11095;48.066;8.540;2023-05-29T04:28:08;8.95;;;5.72;;
21860;SDS011;11095;48.066;8.540;2023-05-29T04:30:35;8.25;;;5.70;;
21860;SDS011;11095;48.066;8.540;2023-05-29T04:33:01;8.05;;;5.63;;
21860;SDS011;11095;48.066;8.540;2023-05-29T04:35:28;7.47;;;5.72;;
21860;SDS011;11095;48.066;8.540;2023-05-29T04:37:54;7.97;;;4.90;;
21860;SDS011;11095;48.066;8.540;2023-05-29T04:40:21;7.80;;;5.22;;
21860;SDS011;11095;48.066;8.540;2023-05-29T04:42:47;8.93;;;5.82;;
21860;SDS011;11095;48.066;8.540;2023-05-29T04:45:12;7.47;;;5.30;;
21860;SDS011;11095;48.066;8.540;2023-05-29T04:47:38;8.27;;;5.38;;
21860;SDS011;11095;48.066;8.540;2023-05-29T04:50:11;8.00;;;5.80;;
21860;SDS011;11095;48.066;8.540;2023-05-29T04:52:37;8.43;;;5.70;;
21860;SDS011;11095;48.066;8.540;2023-05-29T04:55:03;8.18;;;5.70;;
21860;SDS011;11095;48.066;8.540;2023-05-29T04:57:30;8.27;;;5.30;;
21860;SDS011;11095;48.066;8.540;2023-05-29T04:59:56;8.75;;;5.40;;
21860;SDS011;11095;48.066;8.540;2023-05-29T05:02:21;6.82;;;5.07;;
21860;SDS011;11095;48.066;8.540;2023-05-29T05:04:47;8.07;;;5.72;;
21860;SDS011;11095;48.066;8.540;2023-05-29T05:07:12;6.78;;;4.90;;
21860;SDS011;11095;48.066;8.540;2023-05-29T05:09:40;8.32;;;5.47;;
21860;SDS011;11095;48.066;8.540;2023-05-29T05:12:07;8.20;;;6.03;;
21860;SDS011;11095;48.066;8.540;2023-05-29T05:14:32;6.32;;;4.75;;
21860;SDS011;11095;48.066;8.540;2023-05-29T05:16:58;7.97;;;5.28;;
21860;SDS011;11095;48.066;8.540;2023-05-29T05:19:24;6.75;;;4.70;;
21860;SDS011;11095;48.066;8.540;2023-05-29T05:21:49;6.43;;;5.00;;
21860;SDS011;11095;48.066;8.540;2023-05-29T05:24:15;7.85;;;5.07;;
21860;SDS011;11095;48.066;8.540;2023-05-29T05:26:40;7.75;;;4.78;;
21860;SDS011;11095;48.066;8.540;2023-05-29T05:29:06;7.00;;;4.88;;
21860;SDS011;11095;48.066;8.540;2023-05-29T05:31:32;6.57;;;4.88;;
21860;SDS011;11095;48.066;8.540;2023-05-29T05:33:57;6.28;;;4.78;;
21860;SDS011;11095;48.066;8.540;2023-05-29T05:36:23;6.53;;;4.68;;
21860;SDS011;11095;48.066;8.540;2023-05-29T05:38:49;6.40;;;5.10;;
21860;SDS011;11095;48.066;8.540;2023-05-29T05:41:14;6.28;;;5.15;;
21860;SDS011;11095;48.066;8.540;2023-05-29T05:43:40;6.78;;;5.05;;
21860;SDS011;11095;48.066;8.540;2023-05-29T05:46:06;6.70;;;4.80;;
21860;SDS011;11095;48.066;8.540;2023-05-29T05:48:31;5.57;;;4.70;;
21860;SDS011;11095;48.066;8.540;2023-05-29T05:50:57;6.20;;;5.07;;
21860;SDS011;11095;48.066;8.540;2023-05-29T05:53:23;5.43;;;4.60;;
21860;SDS011;11095;48.066;8.540;2023-05-29T05:55:49;6.20;;;4.60;;
21860;SDS011;11095;48.066;8.540;2023-05-29T05:58:14;7.28;;;5.43;;
21860;SDS011;11095;48.066;8.540;2023-05-29T06:00:40;5.40;;;4.40;;
21860;SDS011;11095;48.066;8.540;2023-05-29T06:03:07;5.85;;;4.55;;
21860;SDS011;11095;48.066;8.540;2023-05-29T06:05:33;7.80;;;4.82;;
21860;SDS011;11095;48.066;8.540;2023-05-29T06:08:01;5.57;;;4.07;;
21860;SDS011;11095;48.066;8.540;2023-05-29T06:10:27;6.45;;;4.75;;
21860;SDS011;11095;48.066;8.540;2023-05-29T06:12:52;6.57;;;4.40;;
21860;SDS011;11095;48.066;8.540;2023-05-29T06:15:18;7.85;;;5.13;;
21860;SDS011;11095;48.066;8.540;2023-05-29T06:17:44;6.55;;;4.47;;
21860;SDS011;11095;48.066;8.540;2023-05-29T06:20:10;8.15;;;4.88;;
21860;SDS011;11095;48.066;8.540;2023-05-29T06:22:36;7.50;;;4.55;;
21860;SDS011;11095;48.066;8.540;2023-05-29T06:25:02;6.53;;;4.82;;
21860;SDS011;11095;48.066;8.540;2023-05-29T06:27:28;8.05;;;4.88;;
21860;SDS011;11095;48.066;8.540;2023-05-29T06:29:54;6.70;;;4.60;;
21860;SDS011;11095;48.066;8.540;2023-05-29T06:32:19;6.07;;;4.70;;
21860;SDS011;11095;48.066;8.540;2023-05-29T06:34:45;7.88;;;5.05;;
21860;SDS011;11095;48.066;8.540;2023-05-29T06:37:11;6.43;;;4.95;;
21860;SDS011;11095;48.066;8.540;2023-05-29T06:39:36;7.25;;;4.72;;
21860;SDS011;11095;48.066;8.540;2023-05-29T06:42:02;6.10;;;4.50;;
21860;SDS011;11095;48.066;8.540;2023-05-29T06:44:28;6.38;;;4.90;;
21860;SDS011;11095;48.066;8.540;2023-05-29T06:46:54;7.75;;;4.60;;
21860;SDS011;11095;48.066;8.540;2023-05-29T06:49:19;6.15;;;4.80;;
21860;SDS011;11095;48.066;8.540;2023-05-29T06:51:45;5.88;;;4.70;;
21860;SDS011;11095;48.066;8.540;2023-05-29T06:54:11;6.88;;;5.03;;
21860;SDS011;11095;48.066;8.540;2023-05-29T06:56:36;6.70;;;4.75;;
21860;SDS011;11095;48.066;8.540;2023-05-29T06:59:02;6.80;;;4.68;;
21860;SDS011;11095;48.066;8.540;2023-05-29T07:01:27;7.68;;;4.90;;
21860;SDS011;11095;48.066;8.540;2023-05-29T07:03:53;7.38;;;5.22;;
21860;SDS011;11095;48.066;8.540;2023-05-29T07:06:19;8.75;;;5.65;;
21860;SDS011;11095;48.066;8.540;2023-05-29T07:08:45;7.60;;;5.45;;
21860;SDS011;11095;48.066;8.540;2023-05-29T07:11:11;7.70;;;5.10;;
21860;SDS011;11095;48.066;8.540;2023-05-29T07:13:36;9.63;;;5.88;;
21860;SDS011;11095;48.066;8.540;2023-05-29T07:16:02;8.60;;;5.45;;
21860;SDS011;11095;48.066;8.540;2023-05-29T07:18:28;9.25;;;5.30;;
21860;SDS011;11095;48.066;8.540;2023-05-29T07:23:21;7.00;;;4.78;;
21860;SDS011;11095;48.066;8.540;2023-05-29T07:25:46;6.88;;;4.60;;
21860;SDS011;11095;48.066;8.540;2023-05-29T07:28:12;5.55;;;4.35;;
21860;SDS011;11095;48.066;8.540;2023-05-29T07:30:37;6.72;;;4.38;;
21860;SDS011;11095;48.066;8.540;2023-05-29T07:33:03;6.95;;;4.57;;
21860;SDS011;11095;48.066;8.540;2023-05-29T07:35:30;5.90;;;4.40;;
21860;SDS011;11095;48.066;8.540;2023-05-29T07:37:57;7.57;;;4.75;;
21860;SDS011;11095;48.066;8.540;2023-05-29T07:40:23;7.70;;;4.93;;
21860;SDS011;11095;48.066;8.540;2023-05-29T07:42:49;7.07;;;4.70;;
21860;SDS011;11095;48.066;8.540;2023-05-29T07:45:14;6.00;;;4.15;;
21860;SDS011;11095;48.066;8.540;2023-05-29T07:47:40;9.77;;;5.20;;
21860;SDS011;11095;48.066;8.540;2023-05-29T07:50:06;8.85;;;4.97;;
21860;SDS011;11095;48.066;8.540;2023-05-29T07:52:35;7.50;;;4.50;;
21860;SDS011;11095;48.066;8.540;2023-05-29T07:55:01;6.78;;;4.90;;
21860;SDS011;11095;48.066;8.540;2023-05-29T07:57:27;7.13;;;4.78;;
21860;SDS011;11095;48.066;8.540;2023-05-29T07:59:53;7.03;;;4.85;;
21860;SDS011;11095;48.066;8.540;2023-05-29T08:02:19;6.95;;;4.55;;
21860;SDS011;11095;48.066;8.540;2023-05-29T08:04:44;8.32;;;4.50;;
21860;SDS011;11095;48.066;8.540;2023-05-29T08:07:11;8.20;;;4.22;;
21860;SDS011;11095;48.066;8.540;2023-05-29T08:09:37;7.57;;;4.70;;
21860;SDS011;11095;48.066;8.540;2023-05-29T08:12:02;7.10;;;4.40;;
21860;SDS011;11095;48.066;8.540;2023-05-29T08:14:28;6.35;;;4.32;;
21860;SDS011;11095;48.066;8.540;2023-05-29T08:16:54;6.70;;;4.55;;
21860;SDS011;11095;48.066;8.540;2023-05-29T08:19:19;9.95;;;4.95;;
21860;SDS011;11095;48.066;8.540;2023-05-29T08:21:48;6.82;;;4.70;;
21860;SDS011;11095;48.066;8.540;2023-05-29T08:24:13;7.13;;;4.70;;
21860;SDS011;11095;48.066;8.540;2023-05-29T08:26:39;9.82;;;4.60;;
21860;SDS011;11095;48.066;8.540;2023-05-29T08:29:08;8.30;;;4.78;;
21860;SDS011;11095;48.066;8.540;2023-05-29T08:31:34;7.75;;;4.43;;
21860;SDS011;11095;48.066;8.540;2023-05-29T08:34:03;7.60;;;4.67;;
21860;SDS011;11095;48.066;8.540;2023-05-29T08:36:28;7.10;;;4.65;;
21860;SDS011;11095;48.066;8.540;2023-05-29T08:38:54;5.70;;;4.25;;
21860;SDS011;11095;48.066;8.540;2023-05-29T08:41:28;8.90;;;5.10;;
21860;SDS011;11095;48.066;8.540;2023-05-29T08:44:18;9.77;;;4.60;;
21860;SDS011;11095;48.066;8.540;2023-05-29T08:46:49;7.60;;;4.70;;
21860;SDS011;11095;48.066;8.540;2023-05-29T08:49:19;6.93;;;4.50;;
21860;SDS011;11095;48.066;8.540;2023-05-29T08:51:47;7.07;;;4.72;;
21860;SDS011;11095;48.066;8.540;2023-05-29T08:54:18;7.28;;;4.40;;
21860;SDS011;11095;48.066;8.540;2023-05-29T08:56:43;7.20;;;4.18;;
21860;SDS011;11095;48.066;8.540;2023-05-29T08:59:09;6.90;;;4.60;;
21860;SDS011;11095;48.066;8.540;2023-05-29T09:01:37;6.78;;;4.30;;
21860;SDS011;11095;48.066;8.540;2023-05-29T09:04:04;7.50;;;4.18;;
21860;SDS011;11095;48.066;8.540;2023-05-29T09:06:30;6.43;;;4.28;;
21860;SDS011;11095;48.066;8.540;2023-05-29T09:08:56;8.00;;;4.53;;
21860;SDS011;11095;48.066;8.540;2023-05-29T09:11:22;7.13;;;4.50;;
21860;SDS011;11095;48.066;8.540;2023-05-29T09:13:48;6.97;;;4.63;;
21860;SDS011;11095;48.066;8.540;2023-05-29T09:16:16;6.05;;;4.20;;
21860;SDS011;11095;48.066;8.540;2023-05-29T09:18:42;9.35;;;4.90;;
21860;SDS011;11095;48.066;8.540;2023-05-29T09:21:24;7.67;;;4.63;;
21860;SDS011;11095;48.066;8.540;2023-05-29T09:23:52;7.55;;;4.43;;
21860;SDS011;11095;48.066;8.540;2023-05-29T09:26:20;7.72;;;4.47;;
21860;SDS011;11095;48.066;8.540;2023-05-29T09:28:48;7.32;;;4.70;;
21860;SDS011;11095;48.066;8.540;2023-05-29T09:31:15;7.88;;;4.07;;
21860;SDS011;11095;48.066;8.540;2023-05-29T09:33:48;8.05;;;4.82;;
21860;SDS011;11095;48.066;8.540;2023-05-29T09:36:21;7.28;;;4.60;;
21860;SDS011;11095;48.066;8.540;2023-05-29T09:38:47;7.30;;;4.40;;
21860;SDS011;11095;48.066;8.540;2023-05-29T09:41:13;7.35;;;5.00;;
21860;SDS011;11095;48.066;8.540;2023-05-29T09:43:47;6.38;;;4.55;;
21860;SDS011;11095;48.066;8.540;2023-05-29T09:46:17;7.78;;;4.57;;
21860;SDS011;11095;48.066;8.540;2023-05-29T09:48:43;11.20;;;4.70;;
21860;SDS011;11095;48.066;8.540;2023-05-29T09:51:22;9.43;;;4.78;;
21860;SDS011;11095;48.066;8.540;2023-05-29T09:53:49;7.05;;;4.72;;
21860;SDS011;11095;48.066;8.540;2023-05-29T09:58:47;7.35;;;4.65;;
21860;SDS011;11095;48.066;8.540;2023-05-29T10:01:14;7.20;;;4.63;;
21860;SDS011;11095;48.066;8.540;2023-05-29T10:03:43;8.45;;;4.28;;
21860;SDS011;11095;48.066;8.540;2023-05-29T10:06:12;6.90;;;4.78;;
21860;SDS011;11095;48.066;8.540;2023-05-29T10:08:45;7.78;;;4.40;;
21860;SDS011;11095;48.066;8.540;2023-05-29T10:11:16;7.47;;;4.70;;
21860;SDS011;11095;48.066;8.540;2023-05-29T10:13:50;7.93;;;4.88;;
21860;SDS011;11095;48.066;8.540;2023-05-29T10:16:18;7.28;;;4.55;;
21860;SDS011;11095;48.066;8.540;2023-05-29T10:18:50;6.68;;;4.53;;
21860;SDS011;11095;48.066;8.540;2023-05-29T10:21:20;7.20;;;4.75;;
21860;SDS011;11095;48.066;8.540;2023-05-29T10:23:50;9.43;;;5.18;;
21860;SDS011;11095;48.066;8.540;2023-05-29T10:26:20;7.53;;;4.50;;
21860;SDS011;11095;48.066;8.540;2023-05-29T10:28:50;7.40;;;4.88;;
21860;SDS011;11095;48.066;8.540;2023-05-29T10:37:04;7.65;;;4.97;;
21860;SDS011;11095;48.066;8.540;2023-05-29T10:39:46;7.93;;;4.57;;
21860;SDS011;11095;48.066;8.540;2023-05-29T10:50:47;7.28;;;4.90;;
21860;SDS011;11095;48.066;8.540;2023-05-29T10:53:15;7.22;;;4.60;;
21860;SDS011;11095;48.066;8.540;2023-05-29T10:55:44;6.60;;;4.45;;
21860;SDS011;11095;48.066;8.540;2023-05-29T11:00:48;6.80;;;4.90;;
21860;SDS011;11095;48.066;8.540;2023-05-29T11:03:14;6.10;;;4.53;;
21860;SDS011;11095;48.066;8.540;2023-05-29T11:06:00;6.65;;;4.82;;
21860;SDS011;11095;48.066;8.540;2023-05-29T11:08:32;7.57;;;4.60;;
21860;SDS011;11095;48.066;8.540;2023-05-29T11:11:02;8.38;;;4.93;;
21860;SDS011;11095;48.066;8.540;2023-05-29T11:13:32;6.20;;;4.35;;
21860;SDS011;11095;48.066;8.540;2023-05-29T11:16:42;6.47;;;4.50;;
21860;SDS011;11095;48.066;8.540;2023-05-29T11:19:07;6.38;;;3.85;;
21860;SDS011;11095;48.066;8.540;2023-05-29T11:24:34;7.30;;;4.30;;
21860;SDS011;11095;48.066;8.540;2023-05-29T11:27:04;6.38;;;4.25;;
21860;SDS011;11095;48.066;8.540;2023-05-29T11:29:37;5.60;;;4.07;;
21860;SDS011;11095;48.066;8.540;2023-05-29T11:32:04;5.97;;;4.15;;
21860;SDS011;11095;48.066;8.540;2023-05-29T11:34:32;6.05;;;4.38;;
21860;SDS011;11095;48.066;8.540;2023-05-29T11:37:01;6.47;;;4.43;;
21860;SDS011;11095;48.066;8.540;2023-05-29T11:39:28;7.47;;;4.03;;
21860;SDS011;11095;48.066;8.540;2023-05-29T11:41:54;5.38;;;4.13;;
21860;SDS011;11095;48.066;8.540;2023-05-29T11:44:23;5.05;;;3.70;;
21860;SDS011;11095;48.066;8.540;2023-05-29T11:47:03;5.70;;;3.80;;
21860;SDS011;11095;48.066;8.540;2023-05-29T11:49:30;5.53;;;3.72;;
21860;SDS011;11095;48.066;8.540;2023-05-29T11:52:11;4.13;;;3.20;;
21860;SDS011;11095;48.066;8.540;2023-05-29T11:54:39;7.30;;;3.13;;
21860;SDS011;11095;48.066;8.540;2023-05-29T11:57:11;5.95;;;3.17;;
21860;SDS011;11095;48.066;8.540;2023-05-29T11:59:45;4.07;;;3.03;;
21860;SDS011;11095;48.066;8.540;2023-05-29T12:02:12;5.18;;;3.35;;
21860;SDS011;11095;48.066;8.540;2023-05-29T12:04:37;5.70;;;3.20;;
21860;SDS011;11095;48.066;8.540;2023-05-29T12:07:16;5.35;;;3.38;;
21860;SDS011;11095;48.066;8.540;2023-05-29T12:09:44;4.65;;;3.25;;
21860;SDS011;11095;48.066;8.540;2023-05-29T12:12:10;5.28;;;3.40;;
21860;SDS011;11095;48.066;8.540;2023-05-29T12:14:35;5.30;;;3.65;;
21860;SDS011;11095;48.066;8.540;2023-05-29T12:17:01;4.70;;;3.47;;
21860;SDS011;11095;48.066;8.540;2023-05-29T12:19:27;5.40;;;3.50;;
21860;SDS011;11095;48.066;8.540;2023-05-29T12:22:00;4.28;;;3.22;;
21860;SDS011;11095;48.066;8.540;2023-05-29T12:24:26;4.80;;;3.17;;
21860;SDS011;11095;48.066;8.540;2023-05-29T12:26:53;5.43;;;3.50;;
21860;SDS011;11095;48.066;8.540;2023-05-29T12:29:19;4.32;;;3.40;;
21860;SDS011;11095;48.066;8.540;2023-05-29T12:31:45;6.45;;;3.67;;
21860;SDS011;11095;48.066;8.540;2023-05-29T12:34:11;5.05;;;3.40;;
21860;SDS011;11095;48.066;8.540;2023-05-29T12:36:42;7.25;;;3.80;;
21860;SDS011;11095;48.066;8.540;2023-05-29T12:39:10;6.90;;;3.50;;
21860;SDS011;11095;48.066;8.540;2023-05-29T12:41:37;6.93;;;3.63;;
21860;SDS011;11095;48.066;8.540;2023-05-29T12:44:04;8.52;;;4.30;;
21860;SDS011;11095;48.066;8.540;2023-05-29T12:46:38;5.80;;;3.72;;
21860;SDS011;11095;48.066;8.540;2023-05-29T12:49:14;8.20;;;4.10;;
21860;SDS011;11095;48.066;8.540;2023-05-29T12:51:42;5.88;;;3.88;;
21860;SDS011;11095;48.066;8.540;2023-05-29T12:54:13;5.15;;;3.80;;
21860;SDS011;11095;48.066;8.540;2023-05-29T12:56:40;7.25;;;3.92;;
21860;SDS011;11095;48.066;8.540;2023-05-29T12:59:09;10.65;;;4.30;;
21860;SDS011;11095;48.066;8.540;2023-05-29T13:01:38;5.85;;;3.83;;
21860;SDS011;11095;48.066;8.540;2023-05-29T13:04:04;4.80;;;3.63;;
21860;SDS011;11095;48.066;8.540;2023-05-29T13:06:34;5.55;;;4.10;;
21860;SDS011;11095;48.066;8.540;2023-05-29T13:09:00;7.53;;;4.00;;
21860;SDS011;11095;48.066;8.540;2023-05-29T13:11:26;7.72;;;4.07;;
21860;SDS011;11095;48.066;8.540;2023-05-29T13:13:52;6.38;;;4.10;;
21860;SDS011;11095;48.066;8.540;2023-05-29T13:16:17;8.07;;;4.30;;
21860;SDS011;11095;48.066;8.540;2023-05-29T13:18:43;5.15;;;3.83;;
21860;SDS011;11095;48.066;8.540;2023-05-29T13:21:09;6.80;;;4.00;;
21860;SDS011;11095;48.066;8.540;2023-05-29T13:23:36;6.70;;;4.38;;
21860;SDS011;11095;48.066;8.540;2023-05-29T13:26:03;6.68;;;4.22;;
21860;SDS011;11095;48.066;8.540;2023-05-29T13:28:30;7.05;;;3.90;;
21860;SDS011;11095;48.066;8.540;2023-05-29T13:30:56;7.75;;;4.00;;
21860;SDS011;11095;48.066;8.540;2023-05-29T13:33:22;5.20;;;3.83;;
21860;SDS011;11095;48.066;8.540;2023-05-29T13:35:47;7.82;;;3.80;;
21860;SDS011;11095;48.066;8.540;2023-05-29T13:38:13;9.05;;;4.30;;
21860;SDS011;11095;48.066;8.540;2023-05-29T13:40:39;6.65;;;4.15;;
21860;SDS011;11095;48.066;8.540;2023-05-29T13:43:05;10.13;;;4.30;;
21860;SDS011;11095;48.066;8.540;2023-05-29T13:45:31;6.18;;;3.85;;
21860;SDS011;11095;48.066;8.540;2023-05-29T13:47:56;5.95;;;3.67;;
21860;SDS011;11095;48.066;8.540;2023-05-29T13:50:22;6.03;;;3.63;;
21860;SDS011;11095;48.066;8.540;2023-05-29T13:52:49;5.20;;;3.70;;
21860;SDS011;11095;48.066;8.540;2023-05-29T13:55:15;7.45;;;3.83;;
21860;SDS011;11095;48.066;8.540;2023-05-29T13:57:41;5.78;;;3.80;;
21860;SDS011;11095;48.066;8.540;2023-05-29T14:00:08;7.25;;;4.50;;
21860;SDS011;11095;48.066;8.540;2023-05-29T14:02:36;5.15;;;3.88;;
21860;SDS011;11095;48.066;8.540;2023-05-29T14:05:02;6.68;;;4.10;;
21860;SDS011;11095;48.066;8.540;2023-05-29T14:07:28;6.63;;;3.70;;
21860;SDS011;11095;48.066;8.540;2023-05-29T14:09:54;8.27;;;3.90;;
21860;SDS011;11095;48.066;8.540;2023-05-29T14:12:20;8.43;;;3.70;;
21860;SDS011;11095;48.066;8.540;2023-05-29T14:14:45;9.35;;;4.05;;
21860;SDS011;11095;48.066;8.540;2023-05-29T14:17:11;6.45;;;4.10;;
21860;SDS011;11095;48.066;8.540;2023-05-29T14:19:38;6.07;;;3.80;;
21860;SDS011;11095;48.066;8.540;2023-05-29T14:22:04;7.63;;;3.70;;
21860;SDS011;11095;48.066;8.540;2023-05-29T14:24:30;5.95;;;3.90;;
21860;SDS011;11095;48.066;8.540;2023-05-29T14:26:55;7.63;;;3.95;;
21860;SDS011;11095;48.066;8.540;2023-05-29T14:29:21;8.05;;;3.95;;
21860;SDS011;11095;48.066;8.540;2023-05-29T14:31:52;6.43;;;4.03;;
21860;SDS011;11095;48.066;8.540;2023-05-29T14:34:18;8.27;;;4.07;;
21860;SDS011;11095;48.066;8.540;2023-05-29T14:36:44;6.93;;;3.80;;
21860;SDS011;11095;48.066;8.540;2023-05-29T14:39:10;6.07;;;3.63;;
21860;SDS011;11095;48.066;8.540;2023-05-29T14:41:36;8.52;;;4.10;;
21860;SDS011;11095;48.066;8.540;2023-05-29T14:44:04;5.30;;;3.60;;
21860;SDS011;11095;48.066;8.540;2023-05-29T14:46:29;5.78;;;4.00;;
21860;SDS011;11095;48.066;8.540;2023-05-29T14:48:59;8.13;;;3.90;;
21860;SDS011;11095;48.066;8.540;2023-05-29T14:51:26;4.97;;;3.50;;
21860;SDS011;11095;48.066;8.540;2023-05-29T14:53:52;6.47;;;3.80;;
21860;SDS011;11095;48.066;8.540;2023-05-29T14:56:18;6.03;;;3.63;;
21860;SDS011;11095;48.066;8.540;2023-05-29T14:58:44;6.20;;;3.80;;
21860;SDS011;11095;48.066;8.540;2023-05-29T15:01:10;5.38;;;3.75;;
21860;SDS011;11095;48.066;8.540;2023-05-29T15:03:36;10.30;;;3.80;;
21860;SDS011;11095;48.066;8.540;2023-05-29T15:06:05;6.93;;;3.50;;
21860;SDS011;11095;48.066;8.540;2023-05-29T15:08:31;15.52;;;3.90;;
21860;SDS011;11095;48.066;8.540;2023-05-29T15:11:00;6.35;;;3.58;;
21860;SDS011;11095;48.066;8.540;2023-05-29T15:13:27;5.68;;;3.42;;
21860;SDS011;11095;48.066;8.540;2023-05-29T15:15:57;5.75;;;3.58;;